sensor_id;sensor_type;location;lat;lon;timestamp;P1;durP1;ratioP1;P2;durP2;ratioP2
47958;SDS011;33718;50.910;-1.514;2023-03-03T00:01:49;8.13;;;3.53;;
47958;SDS011;33718;50.910;-1.514;2023-03-03T00:03:57;7.43;;;3.85;;
47958;SDS011;33718;50.910;-1.514;2023-03-03T00:06:02;7.43;;;3.22;;
47958;SDS011;33718;50.910;-1.514;2023-03-03T00:08:08;7.55;;;3.50;;
47958;SDS011;33718;50.910;-1.514;2023-03-03T00:10:10;9.05;;;3.00;;
47958;SDS011;33718;50.910;-1.514;2023-03-03T00:12:30;8.93;;;3.63;;
47958;SDS011;33718;50.910;-1.514;2023-03-03T00:14:50;8.68;;;3.85;;
47958;SDS011;33718;50.910;-1.514;2023-03-03T00:16:52;9.38;;;3.80;;
47958;SDS011;33718;50.910;-1.514;2023-03-03T00:18:57;14.57;;;4.53;;
47958;SDS011;33718;50.910;-1.514;2023-03-03T00:20:59;7.15;;;3.17;;
47958;SDS011;33718;50.910;-1.514;2023-03-03T00:23:14;9.25;;;4.20;;
47958;SDS011;33718;50.910;-1.514;2023-03-03T00:29:36;7.65;;;3.58;;
47958;SDS011;33718;50.910;-1.514;2023-03-03T00:31:40;12.65;;;3.80;;
47958;SDS011;33718;50.910;-1.514;2023-03-03T00:33:42;8.73;;;3.50;;
47958;SDS011;33718;50.910;-1.514;2023-03-03T00:35:48;4.95;;;3.22;;
47958;SDS011;33718;50.910;-1.514;2023-03-03T00:37:57;8.38;;;3.33;;
47958;SDS011;33718;50.910;-1.514;2023-03-03T00:42:25;5.53;;;2.97;;
47958;SDS011;33718;50.910;-1.514;2023-03-03T00:44:32;7.47;;;3.25;;
47958;SDS011;33718;50.910;-1.514;2023-03-03T00:46:42;10.35;;;4.30;;
47958;SDS011;33718;50.910;-1.514;2023-03-03T00:48:44;13.30;;;3.25;;
47958;SDS011;33718;50.910;-1.514;2023-03-03T00:50:45;4.18;;;3.45;;
47958;SDS011;33718;50.910;-1.514;2023-03-03T00:53:11;4.57;;;3.78;;
47958;SDS011;33718;50.910;-1.514;2023-03-03T00:55:16;8.23;;;3.55;;
47958;SDS011;33718;50.910;-1.514;2023-03-03T00:57:21;8.50;;;3.75;;
47958;SDS011;33718;50.910;-1.514;2023-03-03T00:59:22;6.47;;;2.90;;
47958;SDS011;33718;50.910;-1.514;2023-03-03T01:01:24;9.25;;;3.35;;
47958;SDS011;33718;50.910;-1.514;2023-03-03T01:03:28;5.85;;;3.40;;
47958;SDS011;33718;50.910;-1.514;2023-03-03T01:05:42;10.93;;;3.97;;
47958;SDS011;33718;50.910;-1.514;2023-03-03T01:08:11;19.02;;;4.90;;
47958;SDS011;33718;50.910;-1.514;2023-03-03T01:10:42;8.95;;;4.50;;
47958;SDS011;33718;50.910;-1.514;2023-03-03T01:12:59;11.25;;;3.53;;
47958;SDS011;33718;50.910;-1.514;2023-03-03T01:15:10;10.57;;;3.95;;
47958;SDS011;33718;50.910;-1.514;2023-03-03T01:17:25;9.50;;;3.85;;
47958;SDS011;33718;50.910;-1.514;2023-03-03T01:19:30;7.30;;;4.00;;
47958;SDS011;33718;50.910;-1.514;2023-03-03T01:21:43;10.68;;;4.53;;
47958;SDS011;33718;50.910;-1.514;2023-03-03T01:23:53;10.02;;;4.82;;
47958;SDS011;33718;50.910;-1.514;2023-03-03T01:26:08;9.90;;;4.00;;
47958;SDS011;33718;50.910;-1.514;2023-03-03T01:28:21;11.48;;;4.43;;
47958;SDS011;33718;50.910;-1.514;2023-03-03T01:30:34;17.05;;;7.20;;
47958;SDS011;33718;50.910;-1.514;2023-03-03T01:32:50;22.60;;;9.07;;
47958;SDS011;33718;50.910;-1.514;2023-03-03T01:35:00;30.73;;;10.98;;
47958;SDS011;33718;50.910;-1.514;2023-03-03T01:37:04;27.23;;;9.80;;
47958;SDS011;33718;50.910;-1.514;2023-03-03T01:39:25;19.38;;;8.88;;
47958;SDS011;33718;50.910;-1.514;2023-03-03T01:41:32;23.00;;;7.78;;
47958;SDS011;33718;50.910;-1.514;2023-03-03T01:43:34;20.40;;;7.85;;
47958;SDS011;33718;50.910;-1.514;2023-03-03T01:48:05;21.52;;;8.68;;
47958;SDS011;33718;50.910;-1.514;2023-03-03T01:50:10;18.38;;;7.05;;
47958;SDS011;33718;50.910;-1.514;2023-03-03T01:52:19;17.33;;;7.25;;
47958;SDS011;33718;50.910;-1.514;2023-03-03T01:54:44;12.35;;;6.68;;
47958;SDS011;33718;50.910;-1.514;2023-03-03T01:56:48;15.85;;;6.60;;
47958;SDS011;33718;50.910;-1.514;2023-03-03T01:58:54;11.55;;;5.43;;
47958;SDS011;33718;50.910;-1.514;2023-03-03T02:01:00;11.32;;;6.57;;
47958;SDS011;33718;50.910;-1.514;2023-03-03T02:03:08;15.05;;;6.30;;
47958;SDS011;33718;50.910;-1.514;2023-03-03T02:05:10;11.82;;;6.90;;
47958;SDS011;33718;50.910;-1.514;2023-03-03T02:07:11;12.60;;;7.00;;
47958;SDS011;33718;50.910;-1.514;2023-03-03T02:09:26;16.90;;;6.78;;
47958;SDS011;33718;50.910;-1.514;2023-03-03T02:11:50;14.77;;;7.18;;
47958;SDS011;33718;50.910;-1.514;2023-03-03T02:13:52;12.90;;;6.57;;
47958;SDS011;33718;50.910;-1.514;2023-03-03T02:16:00;10.18;;;5.82;;
47958;SDS011;33718;50.910;-1.514;2023-03-03T02:18:06;15.73;;;7.03;;
47958;SDS011;33718;50.910;-1.514;2023-03-03T02:20:11;13.52;;;6.80;;
47958;SDS011;33718;50.910;-1.514;2023-03-03T02:22:20;11.73;;;6.38;;
47958;SDS011;33718;50.910;-1.514;2023-03-03T02:24:32;10.65;;;6.10;;
47958;SDS011;33718;50.910;-1.514;2023-03-03T02:26:53;12.23;;;6.78;;
47958;SDS011;33718;50.910;-1.514;2023-03-03T02:28:58;11.52;;;6.30;;
47958;SDS011;33718;50.910;-1.514;2023-03-03T02:31:20;7.13;;;5.65;;
47958;SDS011;33718;50.910;-1.514;2023-03-03T02:33:22;23.50;;;6.63;;
47958;SDS011;33718;50.910;-1.514;2023-03-03T02:35:32;9.48;;;6.68;;
47958;SDS011;33718;50.910;-1.514;2023-03-03T02:37:34;11.82;;;6.10;;
47958;SDS011;33718;50.910;-1.514;2023-03-03T02:39:42;11.32;;;7.00;;
47958;SDS011;33718;50.910;-1.514;2023-03-03T02:41:54;8.32;;;7.00;;
47958;SDS011;33718;50.910;-1.514;2023-03-03T02:44:18;7.53;;;6.32;;
47958;SDS011;33718;50.910;-1.514;2023-03-03T02:46:20;7.20;;;5.93;;
47958;SDS011;33718;50.910;-1.514;2023-03-03T02:48:22;9.02;;;5.70;;
47958;SDS011;33718;50.910;-1.514;2023-03-03T02:50:26;9.13;;;6.80;;
47958;SDS011;33718;50.910;-1.514;2023-03-03T02:52:28;12.35;;;6.55;;
47958;SDS011;33718;50.910;-1.514;2023-03-03T02:54:30;16.50;;;7.45;;
47958;SDS011;33718;50.910;-1.514;2023-03-03T02:56:32;11.77;;;6.68;;
47958;SDS011;33718;50.910;-1.514;2023-03-03T02:58:52;7.03;;;5.32;;
47958;SDS011;33718;50.910;-1.514;2023-03-03T03:01:00;13.93;;;7.00;;
47958;SDS011;33718;50.910;-1.514;2023-03-03T03:03:01;8.10;;;6.50;;
47958;SDS011;33718;50.910;-1.514;2023-03-03T03:05:09;13.90;;;6.97;;
47958;SDS011;33718;50.910;-1.514;2023-03-03T03:07:11;14.73;;;7.20;;
47958;SDS011;33718;50.910;-1.514;2023-03-03T03:09:13;7.82;;;5.80;;
47958;SDS011;33718;50.910;-1.514;2023-03-03T03:11:21;10.25;;;6.63;;
47958;SDS011;33718;50.910;-1.514;2023-03-03T03:13:23;10.15;;;6.68;;
47958;SDS011;33718;50.910;-1.514;2023-03-03T03:15:27;12.80;;;7.10;;
47958;SDS011;33718;50.910;-1.514;2023-03-03T03:17:36;9.32;;;6.82;;
47958;SDS011;33718;50.910;-1.514;2023-03-03T03:19:43;8.30;;;7.28;;
47958;SDS011;33718;50.910;-1.514;2023-03-03T03:21:45;12.15;;;7.10;;
47958;SDS011;33718;50.910;-1.514;2023-03-03T03:23:46;11.88;;;6.32;;
47958;SDS011;33718;50.910;-1.514;2023-03-03T03:25:51;13.07;;;6.18;;
47958;SDS011;33718;50.910;-1.514;2023-03-03T03:27:52;11.82;;;5.90;;
47958;SDS011;33718;50.910;-1.514;2023-03-03T03:30:13;11.88;;;7.80;;
47958;SDS011;33718;50.910;-1.514;2023-03-03T03:32:14;8.65;;;5.30;;
47958;SDS011;33718;50.910;-1.514;2023-03-03T03:34:22;10.35;;;5.65;;
47958;SDS011;33718;50.910;-1.514;2023-03-03T03:36:24;9.10;;;5.82;;
47958;SDS011;33718;50.910;-1.514;2023-03-03T03:38:33;7.90;;;6.00;;
47958;SDS011;33718;50.910;-1.514;2023-03-03T03:40:42;9.23;;;5.97;;
47958;SDS011;33718;50.910;-1.514;2023-03-03T03:42:44;11.60;;;5.50;;
47958;SDS011;33718;50.910;-1.514;2023-03-03T03:44:49;5.78;;;5.22;;
47958;SDS011;33718;50.910;-1.514;2023-03-03T03:46:57;6.20;;;5.03;;
47958;SDS011;33718;50.910;-1.514;2023-03-03T03:48:59;11.55;;;7.18;;
47958;SDS011;33718;50.910;-1.514;2023-03-03T03:51:03;8.02;;;6.00;;
47958;SDS011;33718;50.910;-1.514;2023-03-03T03:53:05;6.68;;;5.72;;
47958;SDS011;33718;50.910;-1.514;2023-03-03T03:55:10;10.68;;;6.35;;
47958;SDS011;33718;50.910;-1.514;2023-03-03T03:57:12;10.25;;;6.00;;
47958;SDS011;33718;50.910;-1.514;2023-03-03T03:59:20;5.78;;;5.15;;
47958;SDS011;33718;50.910;-1.514;2023-03-03T04:01:21;6.05;;;5.45;;
47958;SDS011;33718;50.910;-1.514;2023-03-03T04:03:23;15.32;;;6.47;;
47958;SDS011;33718;50.910;-1.514;2023-03-03T04:05:44;8.48;;;5.65;;
47958;SDS011;33718;50.910;-1.514;2023-03-03T04:07:50;7.70;;;5.30;;
47958;SDS011;33718;50.910;-1.514;2023-03-03T04:09:53;9.10;;;5.93;;
47958;SDS011;33718;50.910;-1.514;2023-03-03T04:11:57;8.45;;;5.88;;
47958;SDS011;33718;50.910;-1.514;2023-03-03T04:14:06;9.35;;;5.57;;
47958;SDS011;33718;50.910;-1.514;2023-03-03T04:16:13;8.02;;;5.65;;
47958;SDS011;33718;50.910;-1.514;2023-03-03T04:18:22;10.52;;;5.63;;
47958;SDS011;33718;50.910;-1.514;2023-03-03T04:20:32;9.15;;;5.25;;
47958;SDS011;33718;50.910;-1.514;2023-03-03T04:22:36;5.88;;;4.97;;
47958;SDS011;33718;50.910;-1.514;2023-03-03T04:24:42;8.20;;;4.95;;
47958;SDS011;33718;50.910;-1.514;2023-03-03T04:26:52;9.35;;;5.43;;
47958;SDS011;33718;50.910;-1.514;2023-03-03T04:28:56;12.60;;;5.22;;
47958;SDS011;33718;50.910;-1.514;2023-03-03T04:31:06;8.15;;;5.20;;
47958;SDS011;33718;50.910;-1.514;2023-03-03T04:33:10;8.20;;;5.32;;
47958;SDS011;33718;50.910;-1.514;2023-03-03T04:35:17;9.10;;;5.32;;
47958;SDS011;33718;50.910;-1.514;2023-03-03T04:37:20;4.93;;;4.05;;
47958;SDS011;33718;50.910;-1.514;2023-03-03T04:39:42;9.05;;;4.43;;
47958;SDS011;33718;50.910;-1.514;2023-03-03T04:43:47;6.88;;;4.38;;
47958;SDS011;33718;50.910;-1.514;2023-03-03T04:45:49;6.32;;;4.43;;
47958;SDS011;33718;50.910;-1.514;2023-03-03T04:47:57;7.95;;;4.50;;
47958;SDS011;33718;50.910;-1.514;2023-03-03T04:50:17;7.07;;;5.07;;
47958;SDS011;33718;50.910;-1.514;2023-03-03T04:52:25;10.23;;;4.55;;
47958;SDS011;33718;50.910;-1.514;2023-03-03T04:54:32;6.05;;;4.53;;
47958;SDS011;33718;50.910;-1.514;2023-03-03T04:56:34;9.35;;;5.22;;
47958;SDS011;33718;50.910;-1.514;2023-03-03T04:58:38;14.77;;;5.97;;
47958;SDS011;33718;50.910;-1.514;2023-03-03T05:00:46;6.45;;;4.80;;
47958;SDS011;33718;50.910;-1.514;2023-03-03T05:02:48;7.13;;;5.05;;
47958;SDS011;33718;50.910;-1.514;2023-03-03T05:04:55;12.18;;;6.70;;
47958;SDS011;33718;50.910;-1.514;2023-03-03T05:06:57;5.95;;;4.35;;
47958;SDS011;33718;50.910;-1.514;2023-03-03T05:09:04;12.90;;;6.50;;
47958;SDS011;33718;50.910;-1.514;2023-03-03T05:11:09;11.68;;;5.18;;
47958;SDS011;33718;50.910;-1.514;2023-03-03T05:13:16;8.98;;;4.15;;
47958;SDS011;33718;50.910;-1.514;2023-03-03T05:15:17;11.25;;;4.95;;
47958;SDS011;33718;50.910;-1.514;2023-03-03T05:17:22;9.48;;;5.28;;
47958;SDS011;33718;50.910;-1.514;2023-03-03T05:19:24;5.20;;;4.47;;
47958;SDS011;33718;50.910;-1.514;2023-03-03T05:21:26;10.70;;;5.43;;
47958;SDS011;33718;50.910;-1.514;2023-03-03T05:23:31;9.13;;;4.72;;
47958;SDS011;33718;50.910;-1.514;2023-03-03T05:25:35;7.13;;;4.88;;
47958;SDS011;33718;50.910;-1.514;2023-03-03T05:27:37;9.25;;;5.20;;
47958;SDS011;33718;50.910;-1.514;2023-03-03T05:29:38;10.15;;;5.50;;
47958;SDS011;33718;50.910;-1.514;2023-03-03T05:31:41;8.05;;;5.25;;
47958;SDS011;33718;50.910;-1.514;2023-03-03T05:33:45;10.48;;;5.95;;
47958;SDS011;33718;50.910;-1.514;2023-03-03T05:35:53;7.15;;;5.32;;
47958;SDS011;33718;50.910;-1.514;2023-03-03T05:37:58;6.60;;;5.07;;
47958;SDS011;33718;50.910;-1.514;2023-03-03T05:40:06;6.05;;;4.63;;
47958;SDS011;33718;50.910;-1.514;2023-03-03T05:42:26;6.40;;;4.88;;
47958;SDS011;33718;50.910;-1.514;2023-03-03T05:44:30;8.80;;;5.05;;
47958;SDS011;33718;50.910;-1.514;2023-03-03T05:46:38;8.35;;;5.47;;
47958;SDS011;33718;50.910;-1.514;2023-03-03T05:48:40;6.03;;;5.43;;
47958;SDS011;33718;50.910;-1.514;2023-03-03T05:51:00;11.23;;;5.88;;
47958;SDS011;33718;50.910;-1.514;2023-03-03T05:53:02;10.25;;;6.55;;
47958;SDS011;33718;50.910;-1.514;2023-03-03T05:55:04;8.73;;;5.10;;
47958;SDS011;33718;50.910;-1.514;2023-03-03T05:57:24;7.65;;;5.07;;
47958;SDS011;33718;50.910;-1.514;2023-03-03T05:59:32;8.70;;;5.55;;
47958;SDS011;33718;50.910;-1.514;2023-03-03T06:01:39;8.95;;;5.43;;
47958;SDS011;33718;50.910;-1.514;2023-03-03T06:03:41;10.35;;;5.55;;
47958;SDS011;33718;50.910;-1.514;2023-03-03T06:05:48;8.73;;;5.30;;
47958;SDS011;33718;50.910;-1.514;2023-03-03T06:07:56;7.85;;;5.43;;
47958;SDS011;33718;50.910;-1.514;2023-03-03T06:09:57;9.57;;;5.47;;
47958;SDS011;33718;50.910;-1.514;2023-03-03T06:11:59;7.25;;;5.40;;
47958;SDS011;33718;50.910;-1.514;2023-03-03T06:14:06;9.68;;;5.88;;
47958;SDS011;33718;50.910;-1.514;2023-03-03T06:16:08;8.77;;;5.40;;
47958;SDS011;33718;50.910;-1.514;2023-03-03T06:20:14;9.65;;;6.05;;
47958;SDS011;33718;50.910;-1.514;2023-03-03T06:22:34;8.73;;;6.13;;
47958;SDS011;33718;50.910;-1.514;2023-03-03T06:24:42;11.73;;;6.30;;
47958;SDS011;33718;50.910;-1.514;2023-03-03T06:26:43;11.52;;;6.18;;
47958;SDS011;33718;50.910;-1.514;2023-03-03T06:28:45;10.18;;;5.47;;
47958;SDS011;33718;50.910;-1.514;2023-03-03T06:30:47;7.88;;;5.85;;
47958;SDS011;33718;50.910;-1.514;2023-03-03T06:32:48;13.35;;;6.43;;
47958;SDS011;33718;50.910;-1.514;2023-03-03T06:34:50;11.63;;;6.22;;
47958;SDS011;33718;50.910;-1.514;2023-03-03T06:36:57;10.18;;;6.18;;
47958;SDS011;33718;50.910;-1.514;2023-03-03T06:39:02;10.80;;;6.60;;
47958;SDS011;33718;50.910;-1.514;2023-03-03T06:41:07;12.32;;;5.82;;
47958;SDS011;33718;50.910;-1.514;2023-03-03T06:43:08;7.13;;;5.18;;
47958;SDS011;33718;50.910;-1.514;2023-03-03T06:45:10;13.85;;;5.75;;
47958;SDS011;33718;50.910;-1.514;2023-03-03T06:47:11;16.08;;;6.18;;
47958;SDS011;33718;50.910;-1.514;2023-03-03T06:49:13;11.45;;;6.22;;
47958;SDS011;33718;50.910;-1.514;2023-03-03T06:51:24;9.18;;;6.57;;
47958;SDS011;33718;50.910;-1.514;2023-03-03T06:53:29;9.60;;;6.72;;
47958;SDS011;33718;50.910;-1.514;2023-03-03T06:55:33;8.25;;;5.65;;
47958;SDS011;33718;50.910;-1.514;2023-03-03T06:57:35;9.18;;;6.43;;
47958;SDS011;33718;50.910;-1.514;2023-03-03T06:59:39;10.38;;;6.70;;
47958;SDS011;33718;50.910;-1.514;2023-03-03T07:01:47;11.85;;;6.35;;
47958;SDS011;33718;50.910;-1.514;2023-03-03T07:06:35;10.35;;;6.55;;
47958;SDS011;33718;50.910;-1.514;2023-03-03T07:08:43;9.73;;;6.20;;
47958;SDS011;33718;50.910;-1.514;2023-03-03T07:10:48;13.82;;;6.82;;
47958;SDS011;33718;50.910;-1.514;2023-03-03T07:12:59;12.52;;;6.57;;
47958;SDS011;33718;50.910;-1.514;2023-03-03T07:15:29;8.40;;;5.78;;
47958;SDS011;33718;50.910;-1.514;2023-03-03T07:17:47;12.40;;;7.80;;
47958;SDS011;33718;50.910;-1.514;2023-03-03T07:20:27;12.95;;;5.93;;
47958;SDS011;33718;50.910;-1.514;2023-03-03T07:24:51;12.30;;;7.32;;
47958;SDS011;33718;50.910;-1.514;2023-03-03T07:27:27;11.32;;;6.85;;
47958;SDS011;33718;50.910;-1.514;2023-03-03T07:30:28;15.15;;;6.60;;
47958;SDS011;33718;50.910;-1.514;2023-03-03T07:32:41;15.38;;;7.05;;
47958;SDS011;33718;50.910;-1.514;2023-03-03T07:34:48;9.40;;;6.38;;
47958;SDS011;33718;50.910;-1.514;2023-03-03T07:37:12;11.43;;;7.05;;
47958;SDS011;33718;50.910;-1.514;2023-03-03T07:39:34;11.57;;;5.60;;
47958;SDS011;33718;50.910;-1.514;2023-03-03T07:41:45;11.57;;;6.72;;
47958;SDS011;33718;50.910;-1.514;2023-03-03T07:44:09;11.98;;;6.82;;
47958;SDS011;33718;50.910;-1.514;2023-03-03T07:46:39;9.65;;;6.43;;
47958;SDS011;33718;50.910;-1.514;2023-03-03T07:48:50;14.60;;;6.88;;
47958;SDS011;33718;50.910;-1.514;2023-03-03T07:51:00;11.65;;;5.38;;
47958;SDS011;33718;50.910;-1.514;2023-03-03T07:53:20;11.80;;;6.30;;
47958;SDS011;33718;50.910;-1.514;2023-03-03T07:57:35;12.10;;;5.85;;
47958;SDS011;33718;50.910;-1.514;2023-03-03T07:59:50;8.18;;;4.47;;
47958;SDS011;33718;50.910;-1.514;2023-03-03T08:01:53;8.23;;;4.47;;
47958;SDS011;33718;50.910;-1.514;2023-03-03T08:03:59;8.13;;;5.28;;
47958;SDS011;33718;50.910;-1.514;2023-03-03T08:06:07;6.20;;;3.80;;
47958;SDS011;33718;50.910;-1.514;2023-03-03T08:08:13;7.82;;;3.50;;
47958;SDS011;33718;50.910;-1.514;2023-03-03T08:12:41;5.72;;;3.65;;
47958;SDS011;33718;50.910;-1.514;2023-03-03T08:14:45;9.50;;;3.85;;
47958;SDS011;33718;50.910;-1.514;2023-03-03T08:16:47;8.38;;;2.80;;
47958;SDS011;33718;50.910;-1.514;2023-03-03T08:18:49;6.97;;;3.45;;
47958;SDS011;33718;50.910;-1.514;2023-03-03T08:20:58;5.90;;;3.13;;
47958;SDS011;33718;50.910;-1.514;2023-03-03T08:23:00;6.10;;;2.67;;
47958;SDS011;33718;50.910;-1.514;2023-03-03T08:25:05;5.97;;;2.33;;
47958;SDS011;33718;50.910;-1.514;2023-03-03T08:27:10;2.85;;;2.55;;
47958;SDS011;33718;50.910;-1.514;2023-03-03T08:29:17;5.70;;;2.50;;
47958;SDS011;33718;50.910;-1.514;2023-03-03T08:31:25;9.13;;;2.58;;
47958;SDS011;33718;50.910;-1.514;2023-03-03T08:33:41;5.20;;;2.22;;
47958;SDS011;33718;50.910;-1.514;2023-03-03T08:35:49;5.57;;;2.10;;
47958;SDS011;33718;50.910;-1.514;2023-03-03T08:37:56;9.15;;;3.05;;
47958;SDS011;33718;50.910;-1.514;2023-03-03T08:40:00;4.07;;;2.00;;
47958;SDS011;33718;50.910;-1.514;2023-03-03T08:42:05;9.65;;;2.17;;
47958;SDS011;33718;50.910;-1.514;2023-03-03T08:44:12;2.65;;;2.30;;
47958;SDS011;33718;50.910;-1.514;2023-03-03T08:46:32;2.80;;;1.92;;
47958;SDS011;33718;50.910;-1.514;2023-03-03T08:48:37;2.40;;;1.67;;
47958;SDS011;33718;50.910;-1.514;2023-03-03T08:50:39;5.18;;;1.90;;
47958;SDS011;33718;50.910;-1.514;2023-03-03T08:52:46;5.20;;;2.35;;
47958;SDS011;33718;50.910;-1.514;2023-03-03T08:54:48;4.72;;;2.25;;
47958;SDS011;33718;50.910;-1.514;2023-03-03T08:56:52;5.57;;;1.60;;
47958;SDS011;33718;50.910;-1.514;2023-03-03T08:58:54;3.17;;;1.67;;
47958;SDS011;33718;50.910;-1.514;2023-03-03T09:01:03;6.80;;;1.73;;
47958;SDS011;33718;50.910;-1.514;2023-03-03T09:03:24;8.00;;;1.45;;
47958;SDS011;33718;50.910;-1.514;2023-03-03T09:05:26;2.88;;;1.30;;
47958;SDS011;33718;50.910;-1.514;2023-03-03T09:07:27;4.30;;;1.10;;
47958;SDS011;33718;50.910;-1.514;2023-03-03T09:09:29;5.40;;;1.35;;
47958;SDS011;33718;50.910;-1.514;2023-03-03T09:11:34;8.50;;;1.73;;
47958;SDS011;33718;50.910;-1.514;2023-03-03T09:13:35;5.30;;;1.08;;
47958;SDS011;33718;50.910;-1.514;2023-03-03T09:15:37;7.75;;;1.48;;
47958;SDS011;33718;50.910;-1.514;2023-03-03T09:17:39;1.33;;;1.00;;
47958;SDS011;33718;50.910;-1.514;2023-03-03T09:19:49;2.40;;;1.52;;
47958;SDS011;33718;50.910;-1.514;2023-03-03T09:24:00;3.47;;;1.55;;
47958;SDS011;33718;50.910;-1.514;2023-03-03T09:26:22;2.67;;;1.42;;
47958;SDS011;33718;50.910;-1.514;2023-03-03T09:28:31;4.18;;;2.03;;
47958;SDS011;33718;50.910;-1.514;2023-03-03T09:30:39;1.77;;;1.30;;
47958;SDS011;33718;50.910;-1.514;2023-03-03T09:32:47;2.90;;;1.73;;
47958;SDS011;33718;50.910;-1.514;2023-03-03T09:34:49;3.90;;;1.95;;
47958;SDS011;33718;50.910;-1.514;2023-03-03T09:36:56;2.53;;;1.38;;
47958;SDS011;33718;50.910;-1.514;2023-03-03T09:39:11;1.92;;;1.48;;
47958;SDS011;33718;50.910;-1.514;2023-03-03T09:41:31;3.22;;;1.48;;
47958;SDS011;33718;50.910;-1.514;2023-03-03T09:55:00;2.20;;;1.50;;
47958;SDS011;33718;50.910;-1.514;2023-03-03T10:00:00;2.60;;;1.60;;
47958;SDS011;33718;50.910;-1.514;2023-03-03T10:02:18;3.70;;;1.23;;
47958;SDS011;33718;50.910;-1.514;2023-03-03T10:13:55;1.52;;;1.25;;
47958;SDS011;33718;50.910;-1.514;2023-03-03T10:16:13;3.25;;;1.58;;
47958;SDS011;33718;50.910;-1.514;2023-03-03T10:19:14;2.92;;;1.88;;
47958;SDS011;33718;50.910;-1.514;2023-03-03T10:21:11;2.28;;;1.75;;
47958;SDS011;33718;50.910;-1.514;2023-03-03T10:23:29;1.73;;;1.55;;
47958;SDS011;33718;50.910;-1.514;2023-03-03T10:25:38;2.42;;;1.42;;
47958;SDS011;33718;50.910;-1.514;2023-03-03T10:27:57;3.88;;;2.15;;
47958;SDS011;33718;50.910;-1.514;2023-03-03T10:39:03;3.78;;;1.58;;
47958;SDS011;33718;50.910;-1.514;2023-03-03T10:41:33;6.75;;;2.17;;
47958;SDS011;33718;50.910;-1.514;2023-03-03T10:44:15;4.10;;;1.40;;
47958;SDS011;33718;50.910;-1.514;2023-03-03T10:53:33;4.03;;;1.10;;
47958;SDS011;33718;50.910;-1.514;2023-03-03T11:00:30;3.97;;;1.55;;
47958;SDS011;33718;50.910;-1.514;2023-03-03T11:05:20;2.95;;;1.48;;
47958;SDS011;33718;50.910;-1.514;2023-03-03T11:07:27;1.98;;;1.48;;
47958;SDS011;33718;50.910;-1.514;2023-03-03T11:14:14;3.42;;;1.60;;
47958;SDS011;33718;50.910;-1.514;2023-03-03T11:25:39;2.72;;;1.60;;
47958;SDS011;33718;50.910;-1.514;2023-03-03T11:27:50;5.10;;;1.73;;
47958;SDS011;33718;50.910;-1.514;2023-03-03T11:36:36;5.82;;;2.13;;
47958;SDS011;33718;50.910;-1.514;2023-03-03T11:38:50;4.68;;;1.77;;
47958;SDS011;33718;50.910;-1.514;2023-03-03T11:40:58;5.67;;;1.70;;
47958;SDS011;33718;50.910;-1.514;2023-03-03T11:45:44;5.68;;;2.03;;
47958;SDS011;33718;50.910;-1.514;2023-03-03T11:47:58;7.05;;;2.55;;
47958;SDS011;33718;50.910;-1.514;2023-03-03T11:56:49;3.50;;;2.17;;
47958;SDS011;33718;50.910;-1.514;2023-03-03T11:58:57;4.57;;;2.40;;
47958;SDS011;33718;50.910;-1.514;2023-03-03T12:05:29;8.20;;;2.80;;
47958;SDS011;33718;50.910;-1.514;2023-03-03T12:07:36;5.97;;;2.65;;
47958;SDS011;33718;50.910;-1.514;2023-03-03T12:12:09;4.82;;;2.42;;
47958;SDS011;33718;50.910;-1.514;2023-03-03T12:14:37;6.68;;;2.10;;
47958;SDS011;33718;50.910;-1.514;2023-03-03T12:27:34;2.47;;;1.90;;
47958;SDS011;33718;50.910;-1.514;2023-03-03T12:29:49;4.70;;;3.13;;
47958;SDS011;33718;50.910;-1.514;2023-03-03T12:34:52;3.33;;;2.30;;
47958;SDS011;33718;50.910;-1.514;2023-03-03T12:37:45;4.45;;;2.60;;
47958;SDS011;33718;50.910;-1.514;2023-03-03T12:48:24;5.30;;;1.52;;
47958;SDS011;33718;50.910;-1.514;2023-03-03T12:52:45;4.60;;;1.40;;
47958;SDS011;33718;50.910;-1.514;2023-03-03T12:54:56;2.50;;;1.60;;
47958;SDS011;33718;50.910;-1.514;2023-03-03T12:57:05;3.33;;;1.40;;
47958;SDS011;33718;50.910;-1.514;2023-03-03T12:59:20;4.97;;;1.77;;
47958;SDS011;33718;50.910;-1.514;2023-03-03T13:03:52;2.03;;;1.48;;
47958;SDS011;33718;50.910;-1.514;2023-03-03T13:06:02;4.15;;;1.55;;
47958;SDS011;33718;50.910;-1.514;2023-03-03T13:10:29;2.28;;;1.60;;
47958;SDS011;33718;50.910;-1.514;2023-03-03T13:12:41;1.63;;;1.48;;
47958;SDS011;33718;50.910;-1.514;2023-03-03T13:14:49;6.43;;;2.05;;
47958;SDS011;33718;50.910;-1.514;2023-03-03T13:19:15;2.45;;;1.30;;
47958;SDS011;33718;50.910;-1.514;2023-03-03T13:23:41;6.32;;;1.60;;
47958;SDS011;33718;50.910;-1.514;2023-03-03T13:25:52;4.45;;;1.80;;
47958;SDS011;33718;50.910;-1.514;2023-03-03T13:30:46;3.45;;;1.52;;
47958;SDS011;33718;50.910;-1.514;2023-03-03T13:35:42;3.70;;;1.70;;
47958;SDS011;33718;50.910;-1.514;2023-03-03T13:37:51;1.70;;;1.38;;
47958;SDS011;33718;50.910;-1.514;2023-03-03T13:44:45;2.55;;;1.13;;
47958;SDS011;33718;50.910;-1.514;2023-03-03T13:49:21;4.32;;;1.40;;
47958;SDS011;33718;50.910;-1.514;2023-03-03T13:53:50;1.83;;;1.13;;
47958;SDS011;33718;50.910;-1.514;2023-03-03T14:00:25;4.55;;;1.27;;
47958;SDS011;33718;50.910;-1.514;2023-03-03T14:06:52;11.20;;;1.88;;
47958;SDS011;33718;50.910;-1.514;2023-03-03T14:13:08;2.40;;;1.40;;
47958;SDS011;33718;50.910;-1.514;2023-03-03T14:17:37;6.35;;;1.55;;
47958;SDS011;33718;50.910;-1.514;2023-03-03T14:19:45;3.30;;;1.45;;
47958;SDS011;33718;50.910;-1.514;2023-03-03T14:24:17;4.15;;;1.65;;
47958;SDS011;33718;50.910;-1.514;2023-03-03T14:26:22;3.35;;;1.40;;
47958;SDS011;33718;50.910;-1.514;2023-03-03T14:28:27;2.45;;;1.55;;
47958;SDS011;33718;50.910;-1.514;2023-03-03T14:30:36;2.20;;;1.60;;
47958;SDS011;33718;50.910;-1.514;2023-03-03T14:32:41;3.00;;;1.55;;
47958;SDS011;33718;50.910;-1.514;2023-03-03T14:35:12;2.15;;;1.20;;
47958;SDS011;33718;50.910;-1.514;2023-03-03T14:39:37;5.68;;;1.42;;
47958;SDS011;33718;50.910;-1.514;2023-03-03T14:41:40;3.58;;;1.27;;
47958;SDS011;33718;50.910;-1.514;2023-03-03T14:43:45;2.75;;;1.33;;
47958;SDS011;33718;50.910;-1.514;2023-03-03T14:45:58;4.07;;;1.33;;
47958;SDS011;33718;50.910;-1.514;2023-03-03T14:48:19;2.78;;;0.75;;
47958;SDS011;33718;50.910;-1.514;2023-03-03T14:50:40;3.50;;;1.60;;
47958;SDS011;33718;50.910;-1.514;2023-03-03T14:52:51;1.20;;;1.00;;
47958;SDS011;33718;50.910;-1.514;2023-03-03T14:55:38;3.85;;;1.10;;
47958;SDS011;33718;50.910;-1.514;2023-03-03T14:57:43;6.38;;;1.65;;
47958;SDS011;33718;50.910;-1.514;2023-03-03T14:59:54;3.17;;;1.10;;
47958;SDS011;33718;50.910;-1.514;2023-03-03T15:08:33;3.50;;;1.00;;
47958;SDS011;33718;50.910;-1.514;2023-03-03T15:10:41;3.10;;;1.20;;
47958;SDS011;33718;50.910;-1.514;2023-03-03T15:12:47;3.40;;;0.95;;
47958;SDS011;33718;50.910;-1.514;2023-03-03T15:14:49;5.00;;;1.70;;
47958;SDS011;33718;50.910;-1.514;2023-03-03T15:16:51;4.20;;;0.75;;
47958;SDS011;33718;50.910;-1.514;2023-03-03T15:20:58;4.32;;;1.30;;
47958;SDS011;33718;50.910;-1.514;2023-03-03T15:23:25;3.60;;;1.08;;
47958;SDS011;33718;50.910;-1.514;2023-03-03T15:30:14;2.60;;;0.90;;
47958;SDS011;33718;50.910;-1.514;2023-03-03T15:32:29;6.50;;;1.20;;
47958;SDS011;33718;50.910;-1.514;2023-03-03T15:34:53;9.60;;;1.20;;
47958;SDS011;33718;50.910;-1.514;2023-03-03T15:41:25;8.77;;;1.38;;
47958;SDS011;33718;50.910;-1.514;2023-03-03T15:59:50;4.05;;;1.40;;
47958;SDS011;33718;50.910;-1.514;2023-03-03T16:04:20;1.73;;;1.15;;
47958;SDS011;33718;50.910;-1.514;2023-03-03T16:08:47;4.85;;;1.85;;
47958;SDS011;33718;50.910;-1.514;2023-03-03T16:11:04;2.05;;;1.50;;
47958;SDS011;33718;50.910;-1.514;2023-03-03T16:15:40;2.75;;;1.77;;
47958;SDS011;33718;50.910;-1.514;2023-03-03T16:17:53;3.95;;;1.85;;
47958;SDS011;33718;50.910;-1.514;2023-03-03T16:22:03;5.35;;;1.98;;
47958;SDS011;33718;50.910;-1.514;2023-03-03T16:35:58;4.65;;;2.22;;